Atmospheric History
07/20/2012 13:00  to  7/21/2012 13:00
Change End Date:
To complete the export process:
1) Select all of the data below
2) Copy the data to the clipboard
3) Open a word processor such as Notepad
4) Paste the data into the word processor
5) Save the file

Date/Time (MST), AirTemp, RH, Dewpoint ,AvgWindSpeed, GustWindSpeed, WindDirection, PrecipType, PrecipIntensity, PrecipAccumulation, PrecipRate ,Visibility
07/21/2012 12:54, 78, 36 , 49 ,12, 19, W, None, None , 0.08, 0 ,6560
07/21/2012 12:49, 76, 38 , 49 ,10, 19, W, None, None , 0.08, 0 ,6560
07/21/2012 12:44, 77, 39 , 50 ,12, 16, W, None, None , 0.08, 0 ,6560
07/21/2012 12:34, 76, 42 , 52 ,11, 16, W, None, None , 0.08, 0 ,6560
07/21/2012 12:30, 76, 43 , 52 ,11, 16, NW, None, None , 0.08, 0 ,6560
07/21/2012 12:24, 75, 43 , 51 ,11, 17, NW, None, None , 0.08, 0 ,6560
07/21/2012 12:19, 75, 44 , 52 ,9, 16, NW, None, None , 0.08, 0 ,6560
07/21/2012 12:14, 76, 44 , 52 ,11, 16, W, None, None , 0.08, 0 ,6560
07/21/2012 12:04, 74, 46 , 52 ,12, 19, W, None, None , 0.08, 0 ,6560
07/21/2012 12:00, 75, 45 , 52 ,13, 19, W, None, None , 0.08, 0 ,6560
07/21/2012 11:54, 74, 46 , 52 ,14, 19, W, None, None , 0.08, 0 ,6560
07/21/2012 11:49, 74, 45 , 52 ,14, 16, W, None, None , 0.08, 0 ,6560
07/21/2012 11:44, 74, 45 , 51 ,14, 16, NW, None, None , 0.08, 0 ,6560
07/21/2012 11:34, 73, 46 , 51 ,11, 16, NW, None, None , 0.08, 0 ,6560
07/21/2012 11:30, 72, 46 , 51 ,11, 15, NW, None, None , 0.08, 0 ,6560
07/21/2012 11:24, 72, 47 , 51 ,11, 16, W, None, None , 0.08, 0 ,6560
07/21/2012 11:19, 73, 45 , 50 ,12, 16, W, None, None , 0.08, 0 ,6560
07/21/2012 11:14, 72, 48 , 51 ,13, 16, NW, None, None , 0.08, 0 ,6560
07/21/2012 11:04, 72, 48 , 51 ,12, 17, NW, None, None , 0.08, 0 ,6560
07/21/2012 11:00, 72, 47 , 51 ,12, 16, NW, None, None , 0.08, 0 ,6560
07/21/2012 10:54, 71, 48 , 51 ,13, 16, W, None, None , 0.08, 0 ,6560
07/21/2012 10:44, 71, 47 , 50 ,14, 17, W, None, None , 0.08, 0 ,6560
07/21/2012 10:34, 70, 52 , 52 ,12, 18, W, None, None , 0.08, 0 ,6560
07/21/2012 10:31, 70, 50 , 50 ,15, 18, W, None, None , 0.08, 0 ,6560
07/21/2012 10:24, 69, 52 , 51 ,12, 19, W, None, None , 0.08, 0 ,6560
07/21/2012 10:19, 69, 52 , 51 ,14, 19, W, None, None , 0.08, 0 ,6560
07/21/2012 10:14, 69, 51 , 51 ,12, 18, NW, None, None , 0.08, 0 ,6560
07/21/2012 10:04, 69, 55 , 52 ,12, 18, W, None, None , 0.08, 0 ,6560
07/21/2012 09:54, 68, 54 , 51 ,12, 17, W, None, None , 0.08, 0 ,6560
07/21/2012 09:49, 68, 57 , 52 ,13, 16, NW, None, None , 0.08, 0 ,6560
07/21/2012 09:43, 68, 57 , 52 ,12, 16, NW, None, None , 0.08, 0 ,6560
07/21/2012 09:33, 67, 57 , 52 ,11, 15, NW, None, None , 0.08, 0 ,6560
07/21/2012 09:31, 67, 59 , 53 ,11, 15, NW, None, None , 0.08, 0 ,6560
07/21/2012 09:23, 67, 59 , 52 ,12, 14, NW, None, None , 0.08, 0 ,6560
07/21/2012 09:19, 67, 59 , 52 ,10, 14, NW, None, None , 0.08, 0 ,6560
07/21/2012 09:13, 67, 60 , 52 ,10, 14, NW, None, None , 0.08, 0 ,6560
07/21/2012 09:03, 66, 60 , 52 ,11, 14, NW, None, None , 0.08, 0 ,6560
07/21/2012 09:00, 66, 60 , 52 ,9, 14, NW, None, None , 0.08, 0 ,6560
07/21/2012 08:53, 66, 59 , 52 ,9, 11, NW, None, None , 0.08, 0 ,6560
07/21/2012 08:49, 66, 59 , 51 ,7, 9, NW, None, None , 0.08, 0 ,6560
07/21/2012 08:43, 65, 60 , 51 ,5, 12, W, None, None , 0.08, 0 ,6560
07/21/2012 08:33, 65, 62 , 52 ,9, 12, W, None, None , 0.09, 0 ,6560
07/21/2012 08:30, 65, 64 , 52 ,9, 12, W, None, None , 0.09, 0 ,6560
07/21/2012 08:23, 64, 64 , 52 ,8, 14, W, None, None , 0.09, 0 ,6560
07/21/2012 08:19, 64, 64 , 51 ,10, 14, NW, None, None , 0.09, 0 ,6560
07/21/2012 08:13, 63, 66 , 52 ,9, 16, W, None, None , 0.09, 0 ,6560
07/21/2012 08:03, 62, 66 , 51 ,10, 14, W, None, None , 0.09, 0 ,6560
07/21/2012 08:00, 62, 67 , 51 ,9, 16, NW, None, None , 0.09, 0 ,6560
07/21/2012 07:53, 62, 68 , 51 ,11, 16, NW, None, None , 0.09, 0 ,6560
07/21/2012 07:49, 62, 68 , 51 ,11, 14, NW, None, None , 0.09, 0 ,6560
07/21/2012 07:43, 61, 71 , 52 ,9, 12, NW, None, None , 0.09, 0 ,6560
07/21/2012 07:33, 59, 75 , 52 ,6, 12, W, None, None , 0.09, 0 ,6560
07/21/2012 07:30, 60, 74 , 52 ,7, 12, W, None, None , 0.09, 0 ,6560
07/21/2012 07:23, 59, 74 , 51 ,10, 12, NW, None, None , 0.09, 0 ,6560
07/21/2012 07:19, 60, 72 , 51 ,7, 12, W, None, None , 0.09, 0 ,6560
07/21/2012 07:13, 59, 75 , 51 ,7, 9, NW, None, None , 0.09, 0 ,6560
07/21/2012 07:03, 57, 78 , 51 ,7, 9, NW, None, None , 0.09, 0 ,6560
07/21/2012 07:00, 57, 77 , 50 ,6, 9, NW, None, None , 0.09, 0 ,6560
07/21/2012 06:53, 57, 77 , 50 ,7, 9, NW, None, None , 0.09, 0 ,6560
07/21/2012 06:49, 56, 78 , 49 ,7, 8, NW, None, None , 0.09, 0 ,6560
07/21/2012 06:43, 57, 78 , 50 ,7, 9, NW, None, None , 0.09, 0 ,6560
07/21/2012 06:33, 55, 81 , 50 ,7, 9, NW, None, None , 0.09, 0 ,6560
07/21/2012 06:30, 55, 81 , 49 ,7, 9, NW, None, None , 0.09, 0 ,6560
07/21/2012 06:23, 55, 82 , 49 ,9, 10, NW, None, None , 0.09, 0 ,6560
07/21/2012 06:19, 54, 83 , 49 ,8, 10, NW, None, None , 0.09, 0 ,6560
07/21/2012 06:13, 54, 83 , 49 ,7, 9, NW, None, None , 0.09, 0 ,6560
07/21/2012 06:03, 54, 83 , 49 ,7, 9, NW, None, None , 0.09, 0 ,6560
07/21/2012 06:00, 54, 83 , 49 ,7, 9, NW, None, None , 0.09, 0 ,6560
07/21/2012 05:53, 53, 84 , 49 ,7, 9, NW, None, None , 0.09, 0 ,6560
07/21/2012 05:49, 53, 86 , 48 ,7, 9, NW, None, None , 0.09, 0 ,6560
07/21/2012 05:43, 51, 86 , 47 ,7, 9, W, None, None , 0.09, 0 ,6560
07/21/2012 05:33, 52, 85 , 48 ,7, 9, W, None, None , 0.09, 0 ,6560
07/21/2012 05:30, 51, 87 , 48 ,6, 10, W, None, None , 0.09, 0 ,6560
07/21/2012 05:23, 51, 87 , 47 ,9, 11, W, None, None , 0.09, 0 ,6560
07/21/2012 05:19, 51, 85 , 47 ,8, 9, NW, None, None , 0.09, 0 ,6560
07/21/2012 05:13, 55, 77 , 48 ,8, 12, NW, None, None , 0.09, 0 ,6560
07/21/2012 05:03, 58, 72 , 49 ,12, 14, NW, None, None , 0.09, 0 ,6560
07/21/2012 05:01, 58, 71 , 49 ,12, 14, NW, None, None , 0.09, 0 ,6560
07/21/2012 04:53, 54, 83 , 49 ,10, 12, NW, None, None , 0.09, 0 ,6560
07/21/2012 04:49, 51, 85 , 47 ,7, 9, W, None, None , 0.09, 0 ,6560
07/21/2012 04:42, 53, 82 , 47 ,6, 7, W, None, None , 0.09, 0 ,6560
07/21/2012 04:32, 53, 81 , 47 ,5, 6, W, None, None , 0.09, 0 ,6560
07/21/2012 04:31, 53, 81 , 47 ,3, 6, W, None, None , 0.09, 0 ,6560
07/21/2012 04:22, 54, 81 , 48 ,2, 6, N, None, None , 0.09, 0 ,6560
07/21/2012 04:19, 52, 83 , 47 ,4, 6, NW, None, None , 0.09, 0 ,6560
07/21/2012 04:12, 55, 74 , 47 ,4, 6, W, None, None , 0.09, 0 ,6560
07/21/2012 04:02, 56, 74 , 48 ,0, 4, W, None, None , 0.09, 0 ,6560
07/21/2012 04:01, 56, 74 , 48 ,0, 4, SW, None, None , 0.09, 0 ,6560
07/21/2012 03:52, 56, 75 , 48 ,2, 6, N, None, None , 0.09, 0 ,6560
07/21/2012 03:49, 54, 78 , 48 ,3, 7, W, None, None , 0.09, 0 ,6560
07/21/2012 03:42, 53, 80 , 47 ,6, 7, SW, None, None , 0.09, 0 ,6560
07/21/2012 03:32, 58, 70 , 48 ,1, 10, W, None, None , 0.09, 0 ,6560
07/21/2012 03:31, 58, 70 , 49 ,6, 10, NW, None, None , 0.09, 0 ,6560
07/21/2012 03:22, 57, 74 , 49 ,10, 11, NW, None, None , 0.09, 0 ,6560
07/21/2012 03:19, 57, 74 , 49 ,10, 11, NW, None, None , 0.09, 0 ,6560
07/21/2012 03:12, 55, 78 , 49 ,9, 11, NW, None, None , 0.09, 0 ,6560
07/21/2012 03:02, 56, 77 , 49 ,7, 9, W, None, None , 0.09, 0 ,6560
07/21/2012 03:01, 56, 77 , 49 ,8, 9, NW, None, None , 0.09, 0 ,6560
07/21/2012 02:52, 56, 76 , 49 ,6, 9, NW, None, None , 0.09, 0 ,6560
07/21/2012 02:49, 55, 78 , 49 ,7, 9, NW, None, None , 0.09, 0 ,6560
07/21/2012 02:42, 57, 75 , 49 ,2, 4, W, None, None , 0.09, 0 ,6560
07/21/2012 02:32, 57, 74 , 48 ,1, 3, NW, None, None , 0.09, 0 ,6560
07/21/2012 02:31, 58, 71 , 48 ,1, 4, W, None, None , 0.09, 0 ,6560
07/21/2012 02:22, 60, 68 , 50 ,3, 6, SW, None, None , 0.09, 0 ,6560
07/21/2012 02:19, 58, 71 , 49 ,4, 6, NW, None, None , 0.09, 0 ,6560
07/21/2012 02:12, 59, 70 , 49 ,0, 3, S, None, None , 0.09, 0 ,6560
07/21/2012 02:02, 58, 71 , 49 ,1, 4, S, None, None , 0.09, 0 ,6560
07/21/2012 02:01, 58, 72 , 49 ,2, 4, SW, None, None , 0.09, 0 ,6560
07/21/2012 01:52, 58, 72 , 49 ,2, 4, S, None, None , 0.09, 0 ,6560
07/21/2012 01:49, 58, 71 , 49 ,3, 5, S, None, None , 0.09, 0 ,6560
07/21/2012 01:42, 57, 72 , 49 ,4, 4, S, None, None , 0.09, 0 ,6560
07/21/2012 01:32, 59, 70 , 49 ,1, 1, S, None, None , 0.09, 0 ,6560
07/21/2012 01:31, 58, 71 , 49 ,1, 2, SE, None, None , 0.09, 0 ,6560
07/21/2012 01:22, 59, 69 , 49 ,1, 3, S, None, None , 0.09, 0 ,6560
07/21/2012 01:19, 58, 70 , 49 ,0, 3, SE, None, None , 0.09, 0 ,6560
07/21/2012 01:12, 61, 67 , 50 ,1, 3, SW, None, None , 0.09, 0 ,6560
07/21/2012 01:02, 58, 74 , 50 ,4, 5, W, None, None , 0.09, 0 ,6560
07/21/2012 01:01, 58, 72 , 50 ,4, 5, W, None, None , 0.09, 0 ,6560
07/21/2012 00:52, 58, 75 , 50 ,4, 7, NW, None, None , 0.09, 0 ,6560
07/21/2012 00:49, 58, 75 , 50 ,2, 7, W, None, None , 0.09, 0 ,6560
07/21/2012 00:42, 57, 78 , 50 ,3, 5, NW, None, None , 0.09, 0 ,6560
07/21/2012 00:32, 59, 71 , 50 ,3, 5, NW, None, None , 0.09, 0 ,6560
07/21/2012 00:31, 60, 70 , 50 ,3, 6, W, None, None , 0.09, 0 ,6560
07/21/2012 00:22, 58, 74 , 50 ,6, 6, NW, None, None , 0.09, 0 ,6560
07/21/2012 00:19, 58, 74 , 50 ,5, 6, W, None, None , 0.09, 0 ,6560
07/21/2012 00:12, 60, 68 , 50 ,2, 5, W, None, None , 0.09, 0 ,6560
07/21/2012 00:02, 62, 67 , 51 ,1, 10, NE, None, None , 0.09, 0 ,6560
07/20/2012 23:52, 61, 68 , 50 ,8, 12, W, None, None , 0.09, 0 ,6560
07/20/2012 23:49, 61, 68 , 50 ,2, 4, W, None, None , 0.09, 0 ,6560
07/20/2012 23:41, 60, 69 , 50 ,2, 3, SE, None, None , 0.09, 0 ,6560
07/20/2012 23:31, 61, 69 , 50 ,3, 4, NE, None, None , 0.09, 0 ,6560
07/20/2012 23:31, 61, 68 , 50 ,3, 4, NE, None, None , 0.09, 0 ,6560
07/20/2012 23:21, 64, 62 , 50 ,2, 3, NE, None, None , 0.09, 0 ,6560
07/20/2012 23:19, 64, 62 , 50 ,2, 3, NE, None, None , 0.09, 0 ,6560
07/20/2012 23:11, 63, 63 , 50 ,1, 2, NE, None, None , 0.09, 0 ,6560
07/20/2012 23:01, 64, 62 , 50 ,1, 2, NE, None, None , 0.09, 0 ,6560
07/20/2012 23:01, 63, 62 , 50 ,1, 2, NE, None, None , 0.09, 0 ,6560
07/20/2012 22:51, 63, 64 , 51 ,2, 4, N, None, None , 0.09, 0 ,6560
07/20/2012 22:49, 63, 65 , 51 ,1, 4, N, None, None , 0.09, 0 ,6560
07/20/2012 22:41, 61, 68 , 50 ,1, 2, SE, None, None , 0.09, 0 ,6560
07/20/2012 22:31, 59, 71 , 50 ,1, 3, SE, None, None , 0.09, 0 ,6560
07/20/2012 22:31, 59, 72 , 50 ,1, 3, SE, None, None , 0.09, 0 ,6560
07/20/2012 22:21, 60, 73 , 51 ,1, 3, SE, None, None , 0.09, 0 ,6560
07/20/2012 22:19, 60, 73 , 51 ,1, 3, E, None, None , 0.09, 0 ,6560
07/20/2012 22:11, 61, 69 , 51 ,1, 3, E, None, None , 0.09, 0 ,6560
07/20/2012 22:01, 61, 69 , 51 ,2, 4, E, None, None , 0.09, 0 ,6560
07/20/2012 22:01, 61, 69 , 51 ,2, 4, E, None, None , 0.09, 0 ,6560
07/20/2012 21:51, 62, 70 , 52 ,2, 6, NE, None, None , 0.09, 0 ,6560
07/20/2012 21:49, 61, 70 , 52 ,2, 6, E, None, None , 0.09, 0 ,6560
07/20/2012 21:41, 62, 67 , 51 ,3, 5, E, None, None , 0.09, 0 ,6560
07/20/2012 21:31, 61, 70 , 51 ,2, 4, SE, None, None , 0.09, 0 ,6560
07/20/2012 21:30, 61, 70 , 51 ,2, 3, SE, None, None , 0.09, 0 ,6560
07/20/2012 21:21, 63, 67 , 52 ,3, 6, NE, None, None , 0.09, 0 ,6560
07/20/2012 21:19, 63, 68 , 52 ,3, 6, NE, None, None , 0.09, 0 ,6560
07/20/2012 21:11, 63, 68 , 52 ,4, 6, NE, None, None , 0.09, 0 ,6560
07/20/2012 21:01, 64, 65 , 52 ,2, 6, NE, None, None , 0.09, 0 ,6560
07/20/2012 21:00, 64, 65 , 52 ,2, 6, NE, None, None , 0.09, 0 ,6560
07/20/2012 20:51, 63, 68 , 53 ,2, 4, E, None, None , 0.09, 0 ,6560
07/20/2012 20:49, 64, 68 , 53 ,2, 5, NE, None, None , 0.09, 0 ,6560
07/20/2012 20:41, 64, 68 , 53 ,3, 7, E, None, None , 0.09, 0 ,6560
07/20/2012 20:31, 64, 67 , 53 ,4, 7, NE, None, None , 0.09, 0 ,6560
07/20/2012 20:31, 64, 67 , 53 ,4, 7, NE, None, None , 0.09, 0 ,6560
07/20/2012 20:21, 64, 67 , 53 ,4, 6, S, None, None , 0.09, 0 ,6560
07/20/2012 20:19, 64, 68 , 53 ,4, 6, S, None, None , 0.09, 0 ,6560
07/20/2012 20:11, 65, 72 , 56 ,2, 4, S, None, None , 0.09, 0 ,6560
07/20/2012 20:01, 65, 70 , 55 ,3, 6, SE, None, None , 0.09, 0 ,6560
07/20/2012 19:51, 64, 72 , 55 ,6, 7, SE, None, None , 0.09, 0 ,6560
07/20/2012 19:49, 64, 72 , 55 ,6, 9, SE, None, None , 0.09, 0 ,6560
07/20/2012 19:41, 65, 72 , 56 ,7, 9, E, None, None , 0.09, 0 ,6560
07/20/2012 19:31, 66, 69 , 56 ,4, 6, E, None, None , 0.09, 0 ,6560
07/20/2012 19:31, 66, 69 , 56 ,4, 6, E, None, None , 0.09, 0 ,6560
07/20/2012 19:21, 64, 84 , 59 ,4, 5, NW, None, None , 0.09, 0 ,6560
07/20/2012 19:20, 64, 85 , 59 ,4, 5, NW, None, None , 0.09, 0 ,6560
07/20/2012 19:11, 63, 80 , 57 ,1, 4, NW, None, None , 0.09, 0 ,6560
07/20/2012 19:01, 64, 76 , 56 ,3, 4, W, None, None , 0.09, 0 ,6560
07/20/2012 19:00, 64, 76 , 56 ,3, 6, W, None, None , 0.09, 0 ,6560
07/20/2012 18:51, 64, 73 , 56 ,6, 10, W, None, None , 0.09, 0 ,6560
07/20/2012 18:49, 64, 73 , 56 ,6, 12, W, None, None , 0.09, 0 ,6560
07/20/2012 18:40, 63, 77 , 56 ,10, 25, W, None, None , 0.09, 0 ,6560
07/20/2012 18:30, 61, 77 , 54 ,24, 30, N, Rain, Slight , 0.09, 0 ,6560
07/20/2012 18:30, 61, 77 , 54 ,24, 30, N, Rain, Slight , 0.09, 0 ,6560
07/20/2012 18:20, 60, 80 , 54 ,20, 30, W, Rain, Slight , 0.09, 0 ,6560
07/20/2012 18:19, 60, 81 , 54 ,22, 37, W, Rain, Slight , 0.09, 0 ,6560
07/20/2012 18:10, 60, 75 , 53 ,29, 42, W, Rain, Moderate , 0.06, 0.1 ,6560
07/20/2012 18:00, 70, 44 , 47 ,34, 42, SW, Rain, Slight , 0.02, 0 ,6560
07/20/2012 17:50, 74, 35 , 45 ,22, 29, SW, Rain, Slight , 0.01, 0 ,6560
07/20/2012 17:49, 76, 31 , 44 ,22, 29, SW, Rain, Slight , 0.01, 0 ,6560
07/20/2012 17:40, 78, 26 , 42 ,7, 10, SW, None, None , 0.01, 0 ,6560
07/20/2012 17:30, 80, 26 , 42 ,7, 12, S, None, None , 0.01, 0 ,6560
07/20/2012 17:30, 80, 26 , 42 ,7, 12, S, None, None , 0.01, 0 ,6560
07/20/2012 17:20, 80, 24 , 41 ,3, 9, S, None, None , 0.01, 0 ,6560
07/20/2012 17:19, 80, 24 , 40 ,2, 9, S, None, None , 0.01, 0 ,6560
07/20/2012 17:10, 81, 23 , 40 ,9, 12, S, None, None , 0.01, 0 ,6560
07/20/2012 17:00, 83, 23 , 41 ,9, 17, S, None, None , 0.01, 0 ,6560
07/20/2012 17:00, 83, 23 , 41 ,9, 17, S, None, None , 0.01, 0 ,6560
07/20/2012 16:50, 83, 20 , 39 ,14, 21, S, None, None , 0.01, 0 ,6560
07/20/2012 16:49, 84, 20 , 39 ,14, 21, SW, None, None , 0.01, 0 ,6560
07/20/2012 16:40, 83, 21 , 39 ,9, 17, S, None, None , 0.01, 0 ,6560
07/20/2012 16:31, 83, 22 , 40 ,10, 19, SW, None, None , 0.01, 0 ,6560
07/20/2012 16:30, 83, 22 , 40 ,11, 19, SW, None, None , 0.01, 0 ,6560
07/20/2012 16:20, 82, 24 , 42 ,14, 20, S, None, None , 0.01, 0 ,6560
07/20/2012 16:19, 81, 24 , 41 ,11, 20, S, None, None , 0.01, 0 ,6560
07/20/2012 16:10, 81, 23 , 40 ,9, 17, S, None, None , 0.01, 0 ,6560
07/20/2012 16:00, 82, 24 , 42 ,11, 17, SW, None, None , 0.01, 0 ,6560
07/20/2012 16:00, 82, 24 , 42 ,12, 17, S, None, None , 0.01, 0 ,6560
07/20/2012 15:50, 80, 25 , 42 ,10, 14, S, None, None , 0.01, 0 ,6560
07/20/2012 15:49, 80, 25 , 41 ,11, 14, S, None, None , 0.01, 0 ,6560
07/20/2012 15:40, 80, 24 , 40 ,7, 16, S, None, None , 0.01, 0 ,6560
07/20/2012 15:30, 82, 24 , 42 ,8, 12, SE, None, None , 0.01, 0 ,6560
07/20/2012 15:30, 82, 24 , 42 ,7, 12, SE, None, None , 0.01, 0 ,6560
07/20/2012 15:20, 82, 24 , 43 ,4, 9, SE, None, None , 0.01, 0 ,6560
07/20/2012 15:19, 82, 24 , 42 ,4, 12, SE, None, None , 0.01, 0 ,6560
07/20/2012 15:10, 82, 24 , 41 ,9, 15, S, None, None , 0.01, 0 ,6560
07/20/2012 15:00, 80, 27 , 43 ,4, 9, W, None, None , 0.01, 0 ,6560
07/20/2012 15:00, 80, 27 , 43 ,3, 8, NE, None, None , 0.01, 0 ,6560
07/20/2012 14:50, 81, 26 , 43 ,3, 10, SW, None, None , 0.01, 0 ,6560
07/20/2012 14:49, 80, 25 , 42 ,4, 12, SW, None, None , 0.01, 0 ,6560
07/20/2012 14:40, 81, 26 , 42 ,12, 17, S, None, None , 0.01, 0 ,6560
07/20/2012 14:30, 81, 25 , 42 ,6, 12, S, None, None , 0.01, 0 ,6560
07/20/2012 14:30, 81, 26 , 43 ,6, 12, S, None, None , 0.01, 0 ,6560
07/20/2012 14:20, 80, 25 , 42 ,7, 11, S, None, None , 0.01, 0 ,6560
07/20/2012 14:19, 80, 28 , 44 ,6, 11, S, None, None , 0.01, 0 ,6560
07/20/2012 14:10, 79, 27 , 43 ,5, 14, S, None, None , 0.01, 0 ,6560
07/20/2012 14:01, 79, 29 , 44 ,6, 16, SW, None, None , 0.01, 0 ,6560
07/20/2012 14:00, 79, 30 , 45 ,5, 16, S, None, None , 0.01, 0 ,6560
07/20/2012 13:50, 79, 31 , 46 ,11, 16, S, None, None , 0.01, 0 ,6560
07/20/2012 13:49, 79, 29 , 45 ,12, 16, S, None, None , 0.01, 0 ,6560
07/20/2012 13:40, 77, 34 , 47 ,4, 12, S, None, None , 0.01, 0 ,6560
07/20/2012 13:30, 77, 31 , 44 ,8, 14, S, None, None , 0.01, 0 ,6560
07/20/2012 13:29, 77, 32 , 45 ,8, 14, S, None, None , 0.01, 0 ,6560
07/20/2012 13:19, 77, 32 , 45 ,6, 14, S, None, None , 0.01, 0 ,6560
07/20/2012 13:19, 77, 32 , 45 ,6, 14, S, None, None , 0.01, 0 ,6560
07/20/2012 13:09, 76, 35 , 47 ,7, 11, SE, None, None , 0.01, 0 ,6560
07/20/2012 13:00, 75, 37 , 47 ,4, 11, S, None, None , 0.01, 0 ,6560
Change End Date:
Copyright © 1998-2005 Surface Systems, Inc.
All Rights Reserved
Send comments about the data to:
SCAN Web ® is a registered trademark of Surface Systems, Inc.
SCAN Web Version 5.6